sensor_id;sensor_type;location;lat;lon;timestamp;P1;durP1;ratioP1;P2;durP2;ratioP2
70106;SDS011;57473;37.508;15.080;2023-03-23T00:01:57;13.15;;;9.88;;
70106;SDS011;57473;37.508;15.080;2023-03-23T00:04:23;14.13;;;9.35;;
70106;SDS011;57473;37.508;15.080;2023-03-23T00:06:51;15.35;;;10.30;;
70106;SDS011;57473;37.508;15.080;2023-03-23T00:09:19;15.38;;;9.75;;
70106;SDS011;57473;37.508;15.080;2023-03-23T00:11:49;13.50;;;9.52;;
70106;SDS011;57473;37.508;15.080;2023-03-23T00:14:16;17.42;;;10.40;;
70106;SDS011;57473;37.508;15.080;2023-03-23T00:16:47;15.50;;;10.60;;
70106;SDS011;57473;37.508;15.080;2023-03-23T00:19:15;16.10;;;9.98;;
70106;SDS011;57473;37.508;15.080;2023-03-23T00:21:42;14.65;;;9.75;;
70106;SDS011;57473;37.508;15.080;2023-03-23T00:24:10;17.15;;;10.27;;
70106;SDS011;57473;37.508;15.080;2023-03-23T00:26:44;14.55;;;9.85;;
70106;SDS011;57473;37.508;15.080;2023-03-23T00:31:44;13.40;;;9.95;;
70106;SDS011;57473;37.508;15.080;2023-03-23T00:34:32;13.95;;;9.65;;
70106;SDS011;57473;37.508;15.080;2023-03-23T00:37:00;13.55;;;9.02;;
70106;SDS011;57473;37.508;15.080;2023-03-23T00:39:26;15.82;;;9.82;;
70106;SDS011;57473;37.508;15.080;2023-03-23T00:41:56;14.63;;;9.35;;
70106;SDS011;57473;37.508;15.080;2023-03-23T00:44:27;12.85;;;9.60;;
70106;SDS011;57473;37.508;15.080;2023-03-23T00:46:54;14.43;;;9.13;;
70106;SDS011;57473;37.508;15.080;2023-03-23T00:49:22;14.80;;;10.27;;
70106;SDS011;57473;37.508;15.080;2023-03-23T00:51:53;16.67;;;10.33;;
70106;SDS011;57473;37.508;15.080;2023-03-23T00:54:22;12.85;;;9.45;;
70106;SDS011;57473;37.508;15.080;2023-03-23T00:56:49;15.73;;;9.70;;
70106;SDS011;57473;37.508;15.080;2023-03-23T00:59:15;16.90;;;9.85;;
70106;SDS011;57473;37.508;15.080;2023-03-23T01:01:43;13.93;;;9.25;;
70106;SDS011;57473;37.508;15.080;2023-03-23T01:04:09;14.75;;;10.13;;
70106;SDS011;57473;37.508;15.080;2023-03-23T01:06:38;14.35;;;10.27;;
70106;SDS011;57473;37.508;15.080;2023-03-23T01:09:10;14.13;;;9.85;;
70106;SDS011;57473;37.508;15.080;2023-03-23T01:11:40;14.63;;;9.38;;
70106;SDS011;57473;37.508;15.080;2023-03-23T01:14:07;14.43;;;10.57;;
70106;SDS011;57473;37.508;15.080;2023-03-23T01:16:33;15.88;;;10.43;;
70106;SDS011;57473;37.508;15.080;2023-03-23T01:19:00;13.70;;;9.80;;
70106;SDS011;57473;37.508;15.080;2023-03-23T01:21:26;17.00;;;10.63;;
70106;SDS011;57473;37.508;15.080;2023-03-23T01:23:52;14.48;;;9.60;;
70106;SDS011;57473;37.508;15.080;2023-03-23T01:26:20;15.32;;;9.82;;
70106;SDS011;57473;37.508;15.080;2023-03-23T01:28:48;12.40;;;9.30;;
70106;SDS011;57473;37.508;15.080;2023-03-23T01:31:15;14.70;;;10.23;;
70106;SDS011;57473;37.508;15.080;2023-03-23T01:33:44;16.13;;;10.60;;
70106;SDS011;57473;37.508;15.080;2023-03-23T01:36:11;14.63;;;10.05;;
70106;SDS011;57473;37.508;15.080;2023-03-23T01:38:44;15.80;;;10.82;;
70106;SDS011;57473;37.508;15.080;2023-03-23T01:41:12;15.10;;;10.27;;
70106;SDS011;57473;37.508;15.080;2023-03-23T01:43:56;14.50;;;9.98;;
70106;SDS011;57473;37.508;15.080;2023-03-23T01:46:30;14.02;;;9.68;;
70106;SDS011;57473;37.508;15.080;2023-03-23T01:48:59;15.95;;;9.65;;
70106;SDS011;57473;37.508;15.080;2023-03-23T01:51:33;13.63;;;9.50;;
70106;SDS011;57473;37.508;15.080;2023-03-23T01:54:03;14.13;;;9.75;;
70106;SDS011;57473;37.508;15.080;2023-03-23T01:56:37;14.48;;;9.52;;
70106;SDS011;57473;37.508;15.080;2023-03-23T01:59:08;15.45;;;10.43;;
70106;SDS011;57473;37.508;15.080;2023-03-23T02:01:38;15.10;;;9.82;;
70106;SDS011;57473;37.508;15.080;2023-03-23T02:04:14;15.20;;;10.43;;
70106;SDS011;57473;37.508;15.080;2023-03-23T02:06:42;15.10;;;10.70;;
70106;SDS011;57473;37.508;15.080;2023-03-23T02:09:14;17.30;;;10.93;;
70106;SDS011;57473;37.508;15.080;2023-03-23T02:11:44;17.55;;;11.13;;
70106;SDS011;57473;37.508;15.080;2023-03-23T02:14:12;15.65;;;10.45;;
70106;SDS011;57473;37.508;15.080;2023-03-23T02:16:42;15.75;;;10.75;;
70106;SDS011;57473;37.508;15.080;2023-03-23T02:19:21;13.98;;;10.07;;
70106;SDS011;57473;37.508;15.080;2023-03-23T02:27:50;15.93;;;10.27;;
70106;SDS011;57473;37.508;15.080;2023-03-23T02:35:34;15.07;;;10.40;;
70106;SDS011;57473;37.508;15.080;2023-03-23T02:38:18;14.88;;;10.82;;
70106;SDS011;57473;37.508;15.080;2023-03-23T02:40:53;19.95;;;11.77;;
70106;SDS011;57473;37.508;15.080;2023-03-23T02:43:22;17.52;;;10.73;;
70106;SDS011;57473;37.508;15.080;2023-03-23T02:45:51;17.10;;;11.15;;
70106;SDS011;57473;37.508;15.080;2023-03-23T02:48:19;15.82;;;10.63;;
70106;SDS011;57473;37.508;15.080;2023-03-23T02:50:51;15.15;;;10.18;;
70106;SDS011;57473;37.508;15.080;2023-03-23T02:53:22;15.45;;;10.57;;
70106;SDS011;57473;37.508;15.080;2023-03-23T02:55:52;14.10;;;9.98;;
70106;SDS011;57473;37.508;15.080;2023-03-23T02:58:23;16.90;;;10.88;;
70106;SDS011;57473;37.508;15.080;2023-03-23T03:00:51;17.83;;;11.52;;
70106;SDS011;57473;37.508;15.080;2023-03-23T03:03:23;20.58;;;10.85;;
70106;SDS011;57473;37.508;15.080;2023-03-23T03:11:12;16.10;;;10.77;;
70106;SDS011;57473;37.508;15.080;2023-03-23T03:19:29;16.90;;;10.10;;
70106;SDS011;57473;37.508;15.080;2023-03-23T03:22:08;14.77;;;10.35;;
70106;SDS011;57473;37.508;15.080;2023-03-23T03:24:38;19.13;;;11.13;;
70106;SDS011;57473;37.508;15.080;2023-03-23T03:27:10;16.73;;;10.18;;
70106;SDS011;57473;37.508;15.080;2023-03-23T03:29:56;16.83;;;10.90;;
70106;SDS011;57473;37.508;15.080;2023-03-23T03:32:26;15.02;;;10.43;;
70106;SDS011;57473;37.508;15.080;2023-03-23T03:35:01;16.02;;;10.95;;
70106;SDS011;57473;37.508;15.080;2023-03-23T03:40:04;15.73;;;10.10;;
70106;SDS011;57473;37.508;15.080;2023-03-23T03:42:40;16.38;;;11.23;;
70106;SDS011;57473;37.508;15.080;2023-03-23T03:45:09;20.15;;;10.57;;
70106;SDS011;57473;37.508;15.080;2023-03-23T03:47:37;15.50;;;10.73;;
70106;SDS011;57473;37.508;15.080;2023-03-23T03:50:04;19.60;;;11.73;;
70106;SDS011;57473;37.508;15.080;2023-03-23T03:52:31;19.10;;;12.13;;
70106;SDS011;57473;37.508;15.080;2023-03-23T03:54:57;19.25;;;12.02;;
70106;SDS011;57473;37.508;15.080;2023-03-23T03:57:24;18.55;;;11.25;;
70106;SDS011;57473;37.508;15.080;2023-03-23T03:59:57;17.38;;;11.45;;
70106;SDS011;57473;37.508;15.080;2023-03-23T04:02:45;17.85;;;11.48;;
70106;SDS011;57473;37.508;15.080;2023-03-23T04:05:16;16.63;;;10.63;;
70106;SDS011;57473;37.508;15.080;2023-03-23T04:07:46;16.02;;;10.95;;
70106;SDS011;57473;37.508;15.080;2023-03-23T04:10:19;19.02;;;11.10;;
70106;SDS011;57473;37.508;15.080;2023-03-23T04:12:49;17.27;;;10.60;;
70106;SDS011;57473;37.508;15.080;2023-03-23T04:15:18;16.50;;;9.98;;
70106;SDS011;57473;37.508;15.080;2023-03-23T04:17:46;14.82;;;10.15;;
70106;SDS011;57473;37.508;15.080;2023-03-23T04:20:12;18.92;;;10.43;;
70106;SDS011;57473;37.508;15.080;2023-03-23T04:22:47;17.15;;;10.77;;
70106;SDS011;57473;37.508;15.080;2023-03-23T04:25:19;14.10;;;10.32;;
70106;SDS011;57473;37.508;15.080;2023-03-23T04:27:51;16.38;;;10.98;;
70106;SDS011;57473;37.508;15.080;2023-03-23T04:30:28;17.17;;;10.32;;
70106;SDS011;57473;37.508;15.080;2023-03-23T04:33:04;17.85;;;11.02;;
70106;SDS011;57473;37.508;15.080;2023-03-23T04:35:30;17.48;;;11.10;;
70106;SDS011;57473;37.508;15.080;2023-03-23T04:38:17;22.75;;;11.25;;
70106;SDS011;57473;37.508;15.080;2023-03-23T04:40:52;17.98;;;11.10;;
70106;SDS011;57473;37.508;15.080;2023-03-23T04:43:45;18.05;;;11.15;;
70106;SDS011;57473;37.508;15.080;2023-03-23T04:46:21;21.08;;;11.32;;
70106;SDS011;57473;37.508;15.080;2023-03-23T04:48:50;21.52;;;12.43;;
70106;SDS011;57473;37.508;15.080;2023-03-23T04:51:21;16.98;;;10.75;;
70106;SDS011;57473;37.508;15.080;2023-03-23T04:53:50;16.20;;;10.90;;
70106;SDS011;57473;37.508;15.080;2023-03-23T04:56:17;19.33;;;11.73;;
70106;SDS011;57473;37.508;15.080;2023-03-23T04:58:45;18.20;;;11.40;;
70106;SDS011;57473;37.508;15.080;2023-03-23T05:01:44;19.88;;;12.88;;
70106;SDS011;57473;37.508;15.080;2023-03-23T05:04:17;17.42;;;11.27;;
70106;SDS011;57473;37.508;15.080;2023-03-23T05:06:57;17.40;;;11.50;;
70106;SDS011;57473;37.508;15.080;2023-03-23T05:09:27;17.98;;;11.70;;
70106;SDS011;57473;37.508;15.080;2023-03-23T05:11:54;20.90;;;12.27;;
70106;SDS011;57473;37.508;15.080;2023-03-23T05:14:20;20.00;;;12.57;;
70106;SDS011;57473;37.508;15.080;2023-03-23T05:16:58;18.58;;;12.05;;
70106;SDS011;57473;37.508;15.080;2023-03-23T05:19:25;17.88;;;12.23;;
70106;SDS011;57473;37.508;15.080;2023-03-23T05:21:58;22.23;;;13.25;;
70106;SDS011;57473;37.508;15.080;2023-03-23T05:24:34;19.13;;;12.13;;
70106;SDS011;57473;37.508;15.080;2023-03-23T05:27:03;21.38;;;13.18;;
70106;SDS011;57473;37.508;15.080;2023-03-23T05:29:34;21.75;;;12.90;;
70106;SDS011;57473;37.508;15.080;2023-03-23T05:32:03;23.75;;;13.68;;
70106;SDS011;57473;37.508;15.080;2023-03-23T05:34:35;21.23;;;13.90;;
70106;SDS011;57473;37.508;15.080;2023-03-23T05:37:02;21.73;;;13.80;;
70106;SDS011;57473;37.508;15.080;2023-03-23T05:39:44;24.27;;;14.50;;
70106;SDS011;57473;37.508;15.080;2023-03-23T05:42:28;20.45;;;13.15;;
70106;SDS011;57473;37.508;15.080;2023-03-23T05:45:09;22.48;;;14.10;;
70106;SDS011;57473;37.508;15.080;2023-03-23T05:47:37;21.38;;;13.63;;
70106;SDS011;57473;37.508;15.080;2023-03-23T05:50:11;22.77;;;12.68;;
70106;SDS011;57473;37.508;15.080;2023-03-23T05:52:39;25.00;;;13.57;;
70106;SDS011;57473;37.508;15.080;2023-03-23T05:55:09;20.05;;;12.90;;
70106;SDS011;57473;37.508;15.080;2023-03-23T05:57:39;21.58;;;13.93;;
70106;SDS011;57473;37.508;15.080;2023-03-23T06:00:25;22.95;;;13.95;;
70106;SDS011;57473;37.508;15.080;2023-03-23T06:03:03;24.10;;;14.45;;
70106;SDS011;57473;37.508;15.080;2023-03-23T06:05:43;25.35;;;14.88;;
70106;SDS011;57473;37.508;15.080;2023-03-23T06:08:13;22.98;;;12.95;;
70106;SDS011;57473;37.508;15.080;2023-03-23T06:10:39;22.20;;;14.23;;
70106;SDS011;57473;37.508;15.080;2023-03-23T06:13:06;27.83;;;13.50;;
70106;SDS011;57473;37.508;15.080;2023-03-23T06:15:45;22.27;;;14.38;;
70106;SDS011;57473;37.508;15.080;2023-03-23T06:18:31;20.98;;;13.07;;
70106;SDS011;57473;37.508;15.080;2023-03-23T06:21:05;19.38;;;12.65;;
70106;SDS011;57473;37.508;15.080;2023-03-23T06:23:52;21.90;;;13.45;;
70106;SDS011;57473;37.508;15.080;2023-03-23T06:26:22;21.58;;;13.38;;
70106;SDS011;57473;37.508;15.080;2023-03-23T06:28:55;24.83;;;13.80;;
70106;SDS011;57473;37.508;15.080;2023-03-23T06:31:24;26.35;;;13.95;;
70106;SDS011;57473;37.508;15.080;2023-03-23T06:33:51;30.25;;;17.95;;
70106;SDS011;57473;37.508;15.080;2023-03-23T06:36:24;43.78;;;24.10;;
70106;SDS011;57473;37.508;15.080;2023-03-23T06:39:15;96.10;;;50.25;;
70106;SDS011;57473;37.508;15.080;2023-03-23T06:42:03;103.45;;;51.45;;
70106;SDS011;57473;37.508;15.080;2023-03-23T06:44:34;76.38;;;39.75;;
70106;SDS011;57473;37.508;15.080;2023-03-23T06:47:01;33.40;;;19.02;;
70106;SDS011;57473;37.508;15.080;2023-03-23T06:49:34;32.13;;;17.25;;
70106;SDS011;57473;37.508;15.080;2023-03-23T06:52:10;35.22;;;19.20;;
70106;SDS011;57473;37.508;15.080;2023-03-23T06:54:37;33.53;;;20.20;;
70106;SDS011;57473;37.508;15.080;2023-03-23T06:57:05;27.60;;;17.67;;
70106;SDS011;57473;37.508;15.080;2023-03-23T06:59:31;32.45;;;18.45;;
70106;SDS011;57473;37.508;15.080;2023-03-23T07:01:59;35.08;;;20.65;;
70106;SDS011;57473;37.508;15.080;2023-03-23T07:04:26;33.75;;;19.45;;
70106;SDS011;57473;37.508;15.080;2023-03-23T07:07:02;31.95;;;19.33;;
70106;SDS011;57473;37.508;15.080;2023-03-23T07:09:34;30.38;;;17.58;;
70106;SDS011;57473;37.508;15.080;2023-03-23T07:12:00;35.83;;;17.83;;
70106;SDS011;57473;37.508;15.080;2023-03-23T07:14:36;31.05;;;16.30;;
70106;SDS011;57473;37.508;15.080;2023-03-23T07:17:02;28.35;;;15.25;;
70106;SDS011;57473;37.508;15.080;2023-03-23T07:19:32;22.83;;;14.80;;
70106;SDS011;57473;37.508;15.080;2023-03-23T07:21:58;25.77;;;15.07;;
70106;SDS011;57473;37.508;15.080;2023-03-23T07:24:24;23.50;;;14.10;;
70106;SDS011;57473;37.508;15.080;2023-03-23T07:27:09;21.88;;;13.82;;
70106;SDS011;57473;37.508;15.080;2023-03-23T07:29:37;22.98;;;14.52;;
70106;SDS011;57473;37.508;15.080;2023-03-23T07:32:11;24.08;;;14.15;;
70106;SDS011;57473;37.508;15.080;2023-03-23T07:34:38;22.45;;;14.82;;
70106;SDS011;57473;37.508;15.080;2023-03-23T07:37:19;24.47;;;15.10;;
70106;SDS011;57473;37.508;15.080;2023-03-23T07:39:47;28.00;;;15.10;;
70106;SDS011;57473;37.508;15.080;2023-03-23T07:42:14;21.55;;;14.90;;
70106;SDS011;57473;37.508;15.080;2023-03-23T07:44:47;22.67;;;13.73;;
70106;SDS011;57473;37.508;15.080;2023-03-23T07:47:13;28.55;;;14.90;;
70106;SDS011;57473;37.508;15.080;2023-03-23T07:49:40;22.58;;;13.95;;
70106;SDS011;57473;37.508;15.080;2023-03-23T07:52:16;28.55;;;14.75;;
70106;SDS011;57473;37.508;15.080;2023-03-23T07:54:43;23.85;;;13.98;;
70106;SDS011;57473;37.508;15.080;2023-03-23T07:57:17;25.58;;;14.85;;
70106;SDS011;57473;37.508;15.080;2023-03-23T07:59:49;19.95;;;12.90;;
70106;SDS011;57473;37.508;15.080;2023-03-23T08:02:16;20.42;;;13.85;;
70106;SDS011;57473;37.508;15.080;2023-03-23T08:05:00;22.52;;;13.45;;
70106;SDS011;57473;37.508;15.080;2023-03-23T08:07:43;20.15;;;13.18;;
70106;SDS011;57473;37.508;15.080;2023-03-23T08:10:11;19.77;;;12.63;;
70106;SDS011;57473;37.508;15.080;2023-03-23T08:13:04;21.08;;;12.68;;
70106;SDS011;57473;37.508;15.080;2023-03-23T08:15:40;20.02;;;12.00;;
70106;SDS011;57473;37.508;15.080;2023-03-23T08:18:20;18.70;;;12.20;;
70106;SDS011;57473;37.508;15.080;2023-03-23T08:21:16;13.80;;;9.13;;
70106;SDS011;57473;37.508;15.080;2023-03-23T08:24:03;17.05;;;9.32;;
70106;SDS011;57473;37.508;15.080;2023-03-23T08:26:44;15.25;;;8.82;;
70106;SDS011;57473;37.508;15.080;2023-03-23T08:29:31;16.83;;;9.18;;
70106;SDS011;57473;37.508;15.080;2023-03-23T08:32:21;11.77;;;7.53;;
70106;SDS011;57473;37.508;15.080;2023-03-23T08:35:11;15.82;;;8.90;;
70106;SDS011;57473;37.508;15.080;2023-03-23T08:38:04;14.30;;;8.07;;
70106;SDS011;57473;37.508;15.080;2023-03-23T08:40:34;14.02;;;8.00;;
70106;SDS011;57473;37.508;15.080;2023-03-23T08:43:32;13.00;;;7.82;;
70106;SDS011;57473;37.508;15.080;2023-03-23T08:46:02;12.60;;;7.28;;
70106;SDS011;57473;37.508;15.080;2023-03-23T08:49:04;11.75;;;7.90;;
70106;SDS011;57473;37.508;15.080;2023-03-23T08:51:49;11.07;;;7.72;;
70106;SDS011;57473;37.508;15.080;2023-03-23T08:54:35;15.77;;;7.85;;
70106;SDS011;57473;37.508;15.080;2023-03-23T08:57:20;16.33;;;7.50;;
70106;SDS011;57473;37.508;15.080;2023-03-23T09:00:11;10.35;;;7.50;;
70106;SDS011;57473;37.508;15.080;2023-03-23T09:03:04;12.15;;;7.13;;
70106;SDS011;57473;37.508;15.080;2023-03-23T09:06:00;12.70;;;7.00;;
70106;SDS011;57473;37.508;15.080;2023-03-23T09:08:43;47.08;;;9.48;;
70106;SDS011;57473;37.508;15.080;2023-03-23T09:11:10;12.57;;;6.93;;
70106;SDS011;57473;37.508;15.080;2023-03-23T09:13:37;12.60;;;7.82;;
70106;SDS011;57473;37.508;15.080;2023-03-23T09:16:04;17.00;;;8.43;;
70106;SDS011;57473;37.508;15.080;2023-03-23T09:18:32;13.88;;;7.70;;
70106;SDS011;57473;37.508;15.080;2023-03-23T09:20:59;15.73;;;7.63;;
70106;SDS011;57473;37.508;15.080;2023-03-23T09:23:26;13.90;;;7.28;;
70106;SDS011;57473;37.508;15.080;2023-03-23T09:25:52;12.93;;;7.05;;
70106;SDS011;57473;37.508;15.080;2023-03-23T09:28:19;13.52;;;7.80;;
70106;SDS011;57473;37.508;15.080;2023-03-23T09:30:45;12.30;;;7.80;;
70106;SDS011;57473;37.508;15.080;2023-03-23T09:33:13;15.20;;;6.93;;
70106;SDS011;57473;37.508;15.080;2023-03-23T09:35:40;11.90;;;7.50;;
70106;SDS011;57473;37.508;15.080;2023-03-23T09:38:08;11.52;;;6.40;;
70106;SDS011;57473;37.508;15.080;2023-03-23T09:49:03;19.08;;;10.13;;
70106;SDS011;57473;37.508;15.080;2023-03-23T09:51:48;13.02;;;6.97;;
70106;SDS011;57473;37.508;15.080;2023-03-23T09:57:05;11.52;;;7.25;;
70106;SDS011;57473;37.508;15.080;2023-03-23T10:05:40;11.60;;;7.20;;
70106;SDS011;57473;37.508;15.080;2023-03-23T10:08:12;12.57;;;7.38;;
70106;SDS011;57473;37.508;15.080;2023-03-23T10:13:20;10.18;;;7.20;;
70106;SDS011;57473;37.508;15.080;2023-03-23T10:15:51;11.20;;;7.05;;
70106;SDS011;57473;37.508;15.080;2023-03-23T10:18:20;13.02;;;7.18;;
70106;SDS011;57473;37.508;15.080;2023-03-23T10:21:02;14.63;;;7.32;;
70106;SDS011;57473;37.508;15.080;2023-03-23T10:26:05;10.57;;;7.45;;
70106;SDS011;57473;37.508;15.080;2023-03-23T10:28:48;18.83;;;9.90;;
70106;SDS011;57473;37.508;15.080;2023-03-23T10:31:43;12.20;;;7.00;;
70106;SDS011;57473;37.508;15.080;2023-03-23T10:44:55;12.07;;;7.63;;
70106;SDS011;57473;37.508;15.080;2023-03-23T10:47:22;13.43;;;7.10;;
70106;SDS011;57473;37.508;15.080;2023-03-23T10:54:50;11.73;;;7.93;;
70106;SDS011;57473;37.508;15.080;2023-03-23T10:57:27;11.68;;;6.10;;
70106;SDS011;57473;37.508;15.080;2023-03-23T11:00:05;41.97;;;19.10;;
70106;SDS011;57473;37.508;15.080;2023-03-23T11:02:41;11.32;;;5.72;;
70106;SDS011;57473;37.508;15.080;2023-03-23T11:05:18;7.75;;;5.50;;
70106;SDS011;57473;37.508;15.080;2023-03-23T11:07:49;7.55;;;4.93;;
70106;SDS011;57473;37.508;15.080;2023-03-23T11:10:21;8.40;;;5.00;;
70106;SDS011;57473;37.508;15.080;2023-03-23T11:12:51;5.55;;;4.88;;
70106;SDS011;57473;37.508;15.080;2023-03-23T11:17:56;7.80;;;4.88;;
70106;SDS011;57473;37.508;15.080;2023-03-23T11:20:25;6.47;;;5.20;;
70106;SDS011;57473;37.508;15.080;2023-03-23T11:22:53;10.32;;;6.38;;
70106;SDS011;57473;37.508;15.080;2023-03-23T11:25:20;10.82;;;6.30;;
70106;SDS011;57473;37.508;15.080;2023-03-23T11:27:47;8.50;;;5.35;;
70106;SDS011;57473;37.508;15.080;2023-03-23T11:30:20;7.18;;;5.20;;
70106;SDS011;57473;37.508;15.080;2023-03-23T11:32:49;7.32;;;5.53;;
70106;SDS011;57473;37.508;15.080;2023-03-23T11:35:22;14.88;;;9.60;;
70106;SDS011;57473;37.508;15.080;2023-03-23T11:37:55;22.10;;;13.75;;
70106;SDS011;57473;37.508;15.080;2023-03-23T11:40:26;8.70;;;5.93;;
70106;SDS011;57473;37.508;15.080;2023-03-23T11:51:36;6.22;;;5.03;;
70106;SDS011;57473;37.508;15.080;2023-03-23T11:57:12;8.18;;;6.38;;
70106;SDS011;57473;37.508;15.080;2023-03-23T11:59:39;8.20;;;6.32;;
70106;SDS011;57473;37.508;15.080;2023-03-23T12:02:16;9.10;;;5.80;;
70106;SDS011;57473;37.508;15.080;2023-03-23T12:13:56;9.60;;;6.00;;
70106;SDS011;57473;37.508;15.080;2023-03-23T12:21:54;7.53;;;5.75;;
70106;SDS011;57473;37.508;15.080;2023-03-23T12:27:35;9.40;;;6.32;;
70106;SDS011;57473;37.508;15.080;2023-03-23T12:35:48;10.60;;;6.97;;
70106;SDS011;57473;37.508;15.080;2023-03-23T12:41:20;8.18;;;5.47;;
70106;SDS011;57473;37.508;15.080;2023-03-23T12:44:11;8.18;;;5.20;;
70106;SDS011;57473;37.508;15.080;2023-03-23T12:49:38;45.38;;;23.90;;
70106;SDS011;57473;37.508;15.080;2023-03-23T12:52:35;11.40;;;5.72;;
70106;SDS011;57473;37.508;15.080;2023-03-23T13:06:18;9.45;;;6.25;;
70106;SDS011;57473;37.508;15.080;2023-03-23T13:11:34;9.10;;;6.03;;
70106;SDS011;57473;37.508;15.080;2023-03-23T13:22:59;68.63;;;39.88;;
70106;SDS011;57473;37.508;15.080;2023-03-23T13:28:29;8.75;;;6.28;;
70106;SDS011;57473;37.508;15.080;2023-03-23T13:33:39;12.35;;;6.35;;
70106;SDS011;57473;37.508;15.080;2023-03-23T13:36:11;8.95;;;6.18;;
70106;SDS011;57473;37.508;15.080;2023-03-23T13:38:44;8.63;;;6.05;;
70106;SDS011;57473;37.508;15.080;2023-03-23T13:41:14;13.15;;;6.93;;
70106;SDS011;57473;37.508;15.080;2023-03-23T13:43:42;12.25;;;8.75;;
70106;SDS011;57473;37.508;15.080;2023-03-23T13:48:42;24.42;;;13.68;;
70106;SDS011;57473;37.508;15.080;2023-03-23T13:56:42;11.95;;;6.50;;
70106;SDS011;57473;37.508;15.080;2023-03-23T14:01:56;12.85;;;7.05;;
70106;SDS011;57473;37.508;15.080;2023-03-23T14:04:41;22.42;;;13.25;;
70106;SDS011;57473;37.508;15.080;2023-03-23T14:07:12;24.92;;;16.73;;
70106;SDS011;57473;37.508;15.080;2023-03-23T14:09:44;23.60;;;17.30;;
70106;SDS011;57473;37.508;15.080;2023-03-23T14:12:20;13.40;;;8.95;;
70106;SDS011;57473;37.508;15.080;2023-03-23T14:14:54;9.07;;;5.90;;
70106;SDS011;57473;37.508;15.080;2023-03-23T14:17:31;9.93;;;6.95;;
70106;SDS011;57473;37.508;15.080;2023-03-23T14:20:00;9.48;;;6.40;;
70106;SDS011;57473;37.508;15.080;2023-03-23T14:22:36;11.35;;;6.50;;
70106;SDS011;57473;37.508;15.080;2023-03-23T14:25:14;9.40;;;6.07;;
70106;SDS011;57473;37.508;15.080;2023-03-23T14:27:42;10.75;;;6.22;;
70106;SDS011;57473;37.508;15.080;2023-03-23T14:30:15;10.23;;;6.00;;
70106;SDS011;57473;37.508;15.080;2023-03-23T14:32:45;10.82;;;6.28;;
70106;SDS011;57473;37.508;15.080;2023-03-23T14:35:19;13.70;;;6.55;;
70106;SDS011;57473;37.508;15.080;2023-03-23T14:37:47;11.30;;;6.75;;
70106;SDS011;57473;37.508;15.080;2023-03-23T14:40:15;12.13;;;6.57;;
70106;SDS011;57473;37.508;15.080;2023-03-23T14:42:42;10.45;;;6.53;;
70106;SDS011;57473;37.508;15.080;2023-03-23T14:45:12;8.85;;;5.95;;
70106;SDS011;57473;37.508;15.080;2023-03-23T14:47:44;11.68;;;7.40;;
70106;SDS011;57473;37.508;15.080;2023-03-23T14:53:18;21.02;;;9.68;;
70106;SDS011;57473;37.508;15.080;2023-03-23T14:55:50;9.73;;;6.65;;
70106;SDS011;57473;37.508;15.080;2023-03-23T14:58:19;9.13;;;6.22;;
70106;SDS011;57473;37.508;15.080;2023-03-23T15:01:21;7.47;;;5.28;;
70106;SDS011;57473;37.508;15.080;2023-03-23T15:03:49;8.98;;;5.88;;
70106;SDS011;57473;37.508;15.080;2023-03-23T15:06:22;9.98;;;6.88;;
70106;SDS011;57473;37.508;15.080;2023-03-23T15:08:53;10.18;;;6.18;;
70106;SDS011;57473;37.508;15.080;2023-03-23T15:11:27;28.90;;;17.08;;
70106;SDS011;57473;37.508;15.080;2023-03-23T15:13:57;26.08;;;15.85;;
70106;SDS011;57473;37.508;15.080;2023-03-23T15:18:59;49.05;;;32.22;;
70106;SDS011;57473;37.508;15.080;2023-03-23T15:26:52;8.18;;;5.75;;
70106;SDS011;57473;37.508;15.080;2023-03-23T15:29:19;9.60;;;5.53;;
70106;SDS011;57473;37.508;15.080;2023-03-23T15:31:55;16.65;;;7.28;;
70106;SDS011;57473;37.508;15.080;2023-03-23T15:34:27;9.68;;;6.25;;
70106;SDS011;57473;37.508;15.080;2023-03-23T15:37:05;11.90;;;7.10;;
70106;SDS011;57473;37.508;15.080;2023-03-23T15:39:44;10.73;;;5.53;;
70106;SDS011;57473;37.508;15.080;2023-03-23T15:42:31;29.52;;;17.70;;
70106;SDS011;57473;37.508;15.080;2023-03-23T15:45:05;28.35;;;13.57;;
70106;SDS011;57473;37.508;15.080;2023-03-23T15:50:12;13.20;;;7.13;;
70106;SDS011;57473;37.508;15.080;2023-03-23T15:52:53;11.63;;;6.30;;
70106;SDS011;57473;37.508;15.080;2023-03-23T15:55:23;9.65;;;5.40;;
70106;SDS011;57473;37.508;15.080;2023-03-23T15:57:52;8.15;;;5.40;;
70106;SDS011;57473;37.508;15.080;2023-03-23T16:00:22;9.55;;;6.43;;
70106;SDS011;57473;37.508;15.080;2023-03-23T16:02:53;10.90;;;5.97;;
70106;SDS011;57473;37.508;15.080;2023-03-23T16:05:26;10.00;;;6.40;;
70106;SDS011;57473;37.508;15.080;2023-03-23T16:07:54;13.02;;;6.93;;
70106;SDS011;57473;37.508;15.080;2023-03-23T16:10:22;8.00;;;4.82;;
70106;SDS011;57473;37.508;15.080;2023-03-23T16:12:50;13.02;;;5.70;;
70106;SDS011;57473;37.508;15.080;2023-03-23T16:15:18;11.85;;;6.50;;
70106;SDS011;57473;37.508;15.080;2023-03-23T16:17:46;9.50;;;6.10;;
70106;SDS011;57473;37.508;15.080;2023-03-23T16:20:18;13.32;;;5.68;;
70106;SDS011;57473;37.508;15.080;2023-03-23T16:22:47;11.07;;;5.57;;
70106;SDS011;57473;37.508;15.080;2023-03-23T16:25:16;12.57;;;5.13;;
70106;SDS011;57473;37.508;15.080;2023-03-23T16:27:44;7.93;;;5.15;;
70106;SDS011;57473;37.508;15.080;2023-03-23T16:30:25;10.98;;;6.00;;
70106;SDS011;57473;37.508;15.080;2023-03-23T16:32:53;12.27;;;5.90;;
70106;SDS011;57473;37.508;15.080;2023-03-23T16:35:23;7.53;;;5.13;;
70106;SDS011;57473;37.508;15.080;2023-03-23T16:37:52;10.45;;;5.53;;
70106;SDS011;57473;37.508;15.080;2023-03-23T16:40:33;16.15;;;6.80;;
70106;SDS011;57473;37.508;15.080;2023-03-23T16:43:00;10.32;;;5.60;;
70106;SDS011;57473;37.508;15.080;2023-03-23T16:45:35;9.60;;;5.85;;
70106;SDS011;57473;37.508;15.080;2023-03-23T16:48:06;12.77;;;6.18;;
70106;SDS011;57473;37.508;15.080;2023-03-23T16:50:36;13.98;;;5.75;;
70106;SDS011;57473;37.508;15.080;2023-03-23T16:53:04;15.43;;;6.43;;
70106;SDS011;57473;37.508;15.080;2023-03-23T16:55:34;10.48;;;5.60;;
70106;SDS011;57473;37.508;15.080;2023-03-23T16:58:02;13.00;;;5.22;;
70106;SDS011;57473;37.508;15.080;2023-03-23T17:00:42;11.40;;;5.47;;
70106;SDS011;57473;37.508;15.080;2023-03-23T17:03:11;11.23;;;5.90;;
70106;SDS011;57473;37.508;15.080;2023-03-23T17:05:39;10.15;;;5.43;;
70106;SDS011;57473;37.508;15.080;2023-03-23T17:08:06;12.60;;;6.00;;
70106;SDS011;57473;37.508;15.080;2023-03-23T17:10:36;12.63;;;5.85;;
70106;SDS011;57473;37.508;15.080;2023-03-23T17:13:04;12.98;;;6.00;;
70106;SDS011;57473;37.508;15.080;2023-03-23T17:15:34;11.15;;;5.85;;
70106;SDS011;57473;37.508;15.080;2023-03-23T17:18:03;10.75;;;6.20;;
70106;SDS011;57473;37.508;15.080;2023-03-23T17:20:31;10.98;;;6.57;;
70106;SDS011;57473;37.508;15.080;2023-03-23T17:22:59;13.48;;;6.90;;
70106;SDS011;57473;37.508;15.080;2023-03-23T17:25:27;10.07;;;6.50;;
70106;SDS011;57473;37.508;15.080;2023-03-23T17:27:56;15.90;;;6.60;;
70106;SDS011;57473;37.508;15.080;2023-03-23T17:30:31;10.35;;;6.63;;